sensor_id;sensor_type;location;lat;lon;timestamp;P1;durP1;ratioP1;P2;durP2;ratioP2
33840;SDS011;20142;28.494;-16.312;2023-01-05T00:00:11;40.08;;;7.70;;
33840;SDS011;20142;28.494;-16.312;2023-01-05T00:05:14;36.00;;;6.57;;
33840;SDS011;20142;28.494;-16.312;2023-01-05T00:10:15;28.92;;;6.13;;
33840;SDS011;20142;28.494;-16.312;2023-01-05T00:15:35;35.88;;;6.38;;
33840;SDS011;20142;28.494;-16.312;2023-01-05T00:20:55;32.97;;;7.20;;
33840;SDS011;20142;28.494;-16.312;2023-01-05T00:26:15;33.33;;;6.82;;
33840;SDS011;20142;28.494;-16.312;2023-01-05T00:31:17;30.23;;;6.50;;
33840;SDS011;20142;28.494;-16.312;2023-01-05T00:36:19;26.80;;;5.75;;
33840;SDS011;20142;28.494;-16.312;2023-01-05T00:41:20;33.33;;;6.88;;
33840;SDS011;20142;28.494;-16.312;2023-01-05T00:46:22;38.63;;;7.40;;
33840;SDS011;20142;28.494;-16.312;2023-01-05T00:51:24;37.67;;;6.93;;
33840;SDS011;20142;28.494;-16.312;2023-01-05T00:56:25;39.90;;;7.60;;
33840;SDS011;20142;28.494;-16.312;2023-01-05T01:01:27;31.27;;;6.40;;
33840;SDS011;20142;28.494;-16.312;2023-01-05T01:06:28;30.20;;;7.22;;
33840;SDS011;20142;28.494;-16.312;2023-01-05T01:11:30;38.83;;;6.65;;
33840;SDS011;20142;28.494;-16.312;2023-01-05T01:16:32;35.22;;;6.60;;
33840;SDS011;20142;28.494;-16.312;2023-01-05T01:21:35;30.05;;;7.15;;
33840;SDS011;20142;28.494;-16.312;2023-01-05T01:26:36;33.58;;;6.35;;
33840;SDS011;20142;28.494;-16.312;2023-01-05T01:31:38;32.20;;;6.72;;
33840;SDS011;20142;28.494;-16.312;2023-01-05T01:36:40;44.35;;;7.75;;
33840;SDS011;20142;28.494;-16.312;2023-01-05T01:41:42;35.38;;;6.85;;
33840;SDS011;20142;28.494;-16.312;2023-01-05T01:46:44;31.30;;;6.70;;
33840;SDS011;20142;28.494;-16.312;2023-01-05T01:51:46;27.92;;;6.47;;
33840;SDS011;20142;28.494;-16.312;2023-01-05T01:56:52;24.70;;;6.47;;
33840;SDS011;20142;28.494;-16.312;2023-01-05T02:01:56;30.42;;;6.88;;
33840;SDS011;20142;28.494;-16.312;2023-01-05T02:07:01;36.45;;;8.10;;
33840;SDS011;20142;28.494;-16.312;2023-01-05T02:12:05;27.98;;;6.20;;
33840;SDS011;20142;28.494;-16.312;2023-01-05T02:29:36;27.95;;;6.82;;
33840;SDS011;20142;28.494;-16.312;2023-01-05T02:39:55;37.13;;;6.60;;
33840;SDS011;20142;28.494;-16.312;2023-01-05T02:50:37;31.00;;;7.05;;
33840;SDS011;20142;28.494;-16.312;2023-01-05T03:06:23;35.55;;;8.20;;
33840;SDS011;20142;28.494;-16.312;2023-01-05T03:11:50;30.30;;;8.00;;
33840;SDS011;20142;28.494;-16.312;2023-01-05T03:17:42;35.72;;;8.50;;
33840;SDS011;20142;28.494;-16.312;2023-01-05T03:22:55;31.13;;;8.95;;
33840;SDS011;20142;28.494;-16.312;2023-01-05T03:28:21;34.63;;;7.43;;
33840;SDS011;20142;28.494;-16.312;2023-01-05T03:39:28;31.85;;;7.20;;
33840;SDS011;20142;28.494;-16.312;2023-01-05T03:44:34;29.55;;;7.40;;
33840;SDS011;20142;28.494;-16.312;2023-01-05T03:49:40;28.10;;;7.65;;
33840;SDS011;20142;28.494;-16.312;2023-01-05T03:54:42;37.70;;;7.18;;
33840;SDS011;20142;28.494;-16.312;2023-01-05T03:59:44;33.90;;;6.68;;
33840;SDS011;20142;28.494;-16.312;2023-01-05T04:04:45;32.90;;;7.15;;
33840;SDS011;20142;28.494;-16.312;2023-01-05T04:09:47;31.98;;;6.97;;
33840;SDS011;20142;28.494;-16.312;2023-01-05T04:14:49;25.25;;;7.65;;
33840;SDS011;20142;28.494;-16.312;2023-01-05T04:19:50;33.10;;;8.45;;
33840;SDS011;20142;28.494;-16.312;2023-01-05T04:24:52;41.35;;;8.55;;
33840;SDS011;20142;28.494;-16.312;2023-01-05T04:29:53;37.70;;;7.95;;
33840;SDS011;20142;28.494;-16.312;2023-01-05T04:34:55;26.95;;;6.60;;
33840;SDS011;20142;28.494;-16.312;2023-01-05T04:39:57;39.63;;;7.15;;
33840;SDS011;20142;28.494;-16.312;2023-01-05T04:44:58;29.70;;;6.30;;
33840;SDS011;20142;28.494;-16.312;2023-01-05T04:50:00;35.05;;;5.85;;
33840;SDS011;20142;28.494;-16.312;2023-01-05T04:55:02;24.95;;;5.93;;
33840;SDS011;20142;28.494;-16.312;2023-01-05T05:00:05;29.13;;;6.43;;
33840;SDS011;20142;28.494;-16.312;2023-01-05T05:05:08;27.25;;;7.07;;
33840;SDS011;20142;28.494;-16.312;2023-01-05T05:10:10;37.30;;;8.20;;
33840;SDS011;20142;28.494;-16.312;2023-01-05T05:15:11;28.60;;;7.22;;
33840;SDS011;20142;28.494;-16.312;2023-01-05T05:20:13;27.60;;;6.30;;
33840;SDS011;20142;28.494;-16.312;2023-01-05T05:25:16;27.38;;;6.80;;
33840;SDS011;20142;28.494;-16.312;2023-01-05T05:30:17;29.88;;;5.70;;
33840;SDS011;20142;28.494;-16.312;2023-01-05T05:35:19;30.65;;;6.00;;
33840;SDS011;20142;28.494;-16.312;2023-01-05T05:40:21;33.60;;;7.15;;
33840;SDS011;20142;28.494;-16.312;2023-01-05T05:45:22;28.60;;;6.18;;
33840;SDS011;20142;28.494;-16.312;2023-01-05T05:50:24;36.63;;;7.00;;
33840;SDS011;20142;28.494;-16.312;2023-01-05T05:55:26;29.77;;;6.88;;
33840;SDS011;20142;28.494;-16.312;2023-01-05T06:00:30;34.42;;;6.10;;
33840;SDS011;20142;28.494;-16.312;2023-01-05T06:05:32;29.27;;;6.55;;
33840;SDS011;20142;28.494;-16.312;2023-01-05T06:10:34;32.53;;;6.53;;
33840;SDS011;20142;28.494;-16.312;2023-01-05T06:15:35;24.45;;;5.65;;
33840;SDS011;20142;28.494;-16.312;2023-01-05T06:20:37;34.38;;;6.75;;
33840;SDS011;20142;28.494;-16.312;2023-01-05T06:25:39;33.45;;;6.82;;
33840;SDS011;20142;28.494;-16.312;2023-01-05T06:30:41;19.15;;;6.15;;
33840;SDS011;20142;28.494;-16.312;2023-01-05T06:35:42;35.17;;;6.90;;
33840;SDS011;20142;28.494;-16.312;2023-01-05T06:40:47;32.75;;;7.10;;
33840;SDS011;20142;28.494;-16.312;2023-01-05T06:45:49;26.52;;;7.45;;
33840;SDS011;20142;28.494;-16.312;2023-01-05T06:50:52;33.95;;;6.70;;
33840;SDS011;20142;28.494;-16.312;2023-01-05T06:55:54;30.55;;;6.45;;
33840;SDS011;20142;28.494;-16.312;2023-01-05T07:00:55;28.08;;;8.10;;
33840;SDS011;20142;28.494;-16.312;2023-01-05T07:05:57;30.55;;;6.43;;
33840;SDS011;20142;28.494;-16.312;2023-01-05T07:10:58;27.75;;;6.13;;
33840;SDS011;20142;28.494;-16.312;2023-01-05T07:16:00;28.55;;;6.60;;
33840;SDS011;20142;28.494;-16.312;2023-01-05T07:21:02;28.33;;;5.80;;
33840;SDS011;20142;28.494;-16.312;2023-01-05T07:26:04;41.70;;;7.80;;
33840;SDS011;20142;28.494;-16.312;2023-01-05T07:31:08;24.52;;;5.93;;
33840;SDS011;20142;28.494;-16.312;2023-01-05T07:36:10;31.30;;;6.03;;
33840;SDS011;20142;28.494;-16.312;2023-01-05T07:41:11;33.92;;;7.13;;
33840;SDS011;20142;28.494;-16.312;2023-01-05T07:46:13;33.55;;;6.53;;
33840;SDS011;20142;28.494;-16.312;2023-01-05T07:51:15;36.80;;;7.20;;
33840;SDS011;20142;28.494;-16.312;2023-01-05T07:56:17;21.65;;;5.72;;
33840;SDS011;20142;28.494;-16.312;2023-01-05T08:01:19;26.52;;;6.32;;
33840;SDS011;20142;28.494;-16.312;2023-01-05T08:06:21;29.00;;;6.63;;
33840;SDS011;20142;28.494;-16.312;2023-01-05T08:11:23;25.70;;;5.93;;
33840;SDS011;20142;28.494;-16.312;2023-01-05T08:16:25;22.48;;;5.80;;
33840;SDS011;20142;28.494;-16.312;2023-01-05T08:21:29;34.92;;;7.15;;
33840;SDS011;20142;28.494;-16.312;2023-01-05T08:26:31;26.85;;;6.32;;
33840;SDS011;20142;28.494;-16.312;2023-01-05T08:31:33;27.83;;;6.43;;
33840;SDS011;20142;28.494;-16.312;2023-01-05T08:36:37;29.20;;;5.78;;
33840;SDS011;20142;28.494;-16.312;2023-01-05T08:41:39;27.10;;;6.32;;
33840;SDS011;20142;28.494;-16.312;2023-01-05T08:46:41;29.67;;;6.75;;
33840;SDS011;20142;28.494;-16.312;2023-01-05T08:51:43;28.45;;;6.22;;
33840;SDS011;20142;28.494;-16.312;2023-01-05T08:56:44;19.48;;;5.63;;
33840;SDS011;20142;28.494;-16.312;2023-01-05T09:01:50;30.58;;;6.28;;
33840;SDS011;20142;28.494;-16.312;2023-01-05T09:06:51;28.25;;;6.07;;
33840;SDS011;20142;28.494;-16.312;2023-01-05T09:11:54;34.78;;;5.97;;
33840;SDS011;20142;28.494;-16.312;2023-01-05T09:16:55;26.95;;;5.38;;
33840;SDS011;20142;28.494;-16.312;2023-01-05T09:21:57;26.33;;;5.05;;
33840;SDS011;20142;28.494;-16.312;2023-01-05T09:26:59;22.13;;;5.30;;
33840;SDS011;20142;28.494;-16.312;2023-01-05T09:32:00;29.38;;;5.53;;
33840;SDS011;20142;28.494;-16.312;2023-01-05T09:37:02;31.35;;;5.10;;
33840;SDS011;20142;28.494;-16.312;2023-01-05T09:42:04;25.67;;;5.25;;
33840;SDS011;20142;28.494;-16.312;2023-01-05T09:47:14;24.05;;;5.13;;
33840;SDS011;20142;28.494;-16.312;2023-01-05T09:52:39;24.50;;;4.65;;
33840;SDS011;20142;28.494;-16.312;2023-01-05T09:57:41;27.27;;;4.55;;
33840;SDS011;20142;28.494;-16.312;2023-01-05T10:03:01;26.63;;;4.68;;
33840;SDS011;20142;28.494;-16.312;2023-01-05T10:08:16;21.45;;;4.20;;
33840;SDS011;20142;28.494;-16.312;2023-01-05T10:13:36;20.13;;;4.28;;
33840;SDS011;20142;28.494;-16.312;2023-01-05T10:18:49;20.52;;;4.30;;
33840;SDS011;20142;28.494;-16.312;2023-01-05T10:24:00;21.42;;;3.95;;
33840;SDS011;20142;28.494;-16.312;2023-01-05T10:29:12;16.13;;;3.47;;
33840;SDS011;20142;28.494;-16.312;2023-01-05T10:34:30;28.43;;;4.40;;
33840;SDS011;20142;28.494;-16.312;2023-01-05T10:45:03;26.40;;;3.53;;
33840;SDS011;20142;28.494;-16.312;2023-01-05T10:55:37;20.67;;;3.50;;
33840;SDS011;20142;28.494;-16.312;2023-01-05T11:00:51;18.08;;;3.20;;
33840;SDS011;20142;28.494;-16.312;2023-01-05T11:05:57;25.27;;;4.15;;
33840;SDS011;20142;28.494;-16.312;2023-01-05T11:11:00;17.17;;;3.78;;
33840;SDS011;20142;28.494;-16.312;2023-01-05T11:21:20;15.43;;;3.20;;
33840;SDS011;20142;28.494;-16.312;2023-01-05T11:26:47;19.25;;;3.03;;
33840;SDS011;20142;28.494;-16.312;2023-01-05T11:32:04;25.80;;;3.80;;
33840;SDS011;20142;28.494;-16.312;2023-01-05T11:42:27;17.15;;;2.90;;
33840;SDS011;20142;28.494;-16.312;2023-01-05T11:47:53;15.80;;;3.25;;
33840;SDS011;20142;28.494;-16.312;2023-01-05T11:53:01;16.00;;;3.08;;
33840;SDS011;20142;28.494;-16.312;2023-01-05T11:58:13;18.08;;;3.13;;
33840;SDS011;20142;28.494;-16.312;2023-01-05T12:03:20;14.57;;;2.58;;
33840;SDS011;20142;28.494;-16.312;2023-01-05T12:08:32;20.77;;;3.15;;
33840;SDS011;20142;28.494;-16.312;2023-01-05T12:51:51;13.88;;;2.60;;
33840;SDS011;20142;28.494;-16.312;2023-01-05T12:57:46;15.98;;;2.67;;
33840;SDS011;20142;28.494;-16.312;2023-01-05T13:02:39;15.18;;;2.72;;
33840;SDS011;20142;28.494;-16.312;2023-01-05T13:07:48;21.23;;;2.67;;
33840;SDS011;20142;28.494;-16.312;2023-01-05T13:12:57;20.88;;;2.60;;
33840;SDS011;20142;28.494;-16.312;2023-01-05T13:18:05;12.93;;;2.30;;
33840;SDS011;20142;28.494;-16.312;2023-01-05T13:23:27;15.55;;;2.97;;
33840;SDS011;20142;28.494;-16.312;2023-01-05T13:29:22;15.25;;;2.72;;
33840;SDS011;20142;28.494;-16.312;2023-01-05T13:34:33;11.27;;;2.53;;
33840;SDS011;20142;28.494;-16.312;2023-01-05T13:40:26;17.73;;;2.65;;
33840;SDS011;20142;28.494;-16.312;2023-01-05T13:45:58;18.90;;;2.78;;
33840;SDS011;20142;28.494;-16.312;2023-01-05T13:56:53;19.27;;;3.08;;
33840;SDS011;20142;28.494;-16.312;2023-01-05T14:01:56;22.92;;;3.10;;
33840;SDS011;20142;28.494;-16.312;2023-01-05T14:07:01;22.73;;;3.45;;
33840;SDS011;20142;28.494;-16.312;2023-01-05T14:17:37;22.40;;;3.08;;
33840;SDS011;20142;28.494;-16.312;2023-01-05T14:22:57;21.70;;;2.97;;
33840;SDS011;20142;28.494;-16.312;2023-01-05T14:33:29;15.25;;;2.47;;
33840;SDS011;20142;28.494;-16.312;2023-01-05T14:38:31;13.27;;;2.35;;
33840;SDS011;20142;28.494;-16.312;2023-01-05T14:43:34;16.63;;;2.55;;
33840;SDS011;20142;28.494;-16.312;2023-01-05T14:48:41;22.20;;;2.75;;
33840;SDS011;20142;28.494;-16.312;2023-01-05T14:54:01;18.17;;;2.42;;
33840;SDS011;20142;28.494;-16.312;2023-01-05T14:59:12;18.65;;;2.72;;
33840;SDS011;20142;28.494;-16.312;2023-01-05T15:15:18;13.98;;;1.80;;
33840;SDS011;20142;28.494;-16.312;2023-01-05T15:32:15;21.10;;;3.00;;
33840;SDS011;20142;28.494;-16.312;2023-01-05T15:42:47;16.92;;;2.65;;
33840;SDS011;20142;28.494;-16.312;2023-01-05T15:47:56;15.05;;;2.72;;
33840;SDS011;20142;28.494;-16.312;2023-01-05T15:58:29;15.43;;;2.83;;
33840;SDS011;20142;28.494;-16.312;2023-01-05T16:03:34;13.27;;;2.85;;
33840;SDS011;20142;28.494;-16.312;2023-01-05T16:08:41;14.13;;;2.97;;
33840;SDS011;20142;28.494;-16.312;2023-01-05T16:19:06;15.05;;;2.90;;
33840;SDS011;20142;28.494;-16.312;2023-01-05T16:24:38;16.40;;;2.95;;
33840;SDS011;20142;28.494;-16.312;2023-01-05T16:30:46;16.38;;;2.75;;
33840;SDS011;20142;28.494;-16.312;2023-01-05T16:35:49;14.15;;;2.88;;
33840;SDS011;20142;28.494;-16.312;2023-01-05T16:41:23;11.20;;;2.60;;
33840;SDS011;20142;28.494;-16.312;2023-01-05T16:46:38;18.08;;;2.75;;
33840;SDS011;20142;28.494;-16.312;2023-01-05T16:51:41;14.80;;;3.28;;
33840;SDS011;20142;28.494;-16.312;2023-01-05T16:56:56;13.40;;;2.38;;
33840;SDS011;20142;28.494;-16.312;2023-01-05T17:02:01;12.70;;;2.45;;
33840;SDS011;20142;28.494;-16.312;2023-01-05T17:07:04;22.65;;;3.03;;
33840;SDS011;20142;28.494;-16.312;2023-01-05T17:12:09;15.82;;;2.90;;
33840;SDS011;20142;28.494;-16.312;2023-01-05T17:17:12;15.15;;;2.78;;
33840;SDS011;20142;28.494;-16.312;2023-01-05T17:22:14;11.00;;;2.63;;
33840;SDS011;20142;28.494;-16.312;2023-01-05T17:27:16;14.38;;;2.78;;
33840;SDS011;20142;28.494;-16.312;2023-01-05T17:32:18;13.15;;;2.50;;
33840;SDS011;20142;28.494;-16.312;2023-01-05T17:37:20;16.25;;;2.35;;
33840;SDS011;20142;28.494;-16.312;2023-01-05T17:42:21;9.38;;;2.50;;
33840;SDS011;20142;28.494;-16.312;2023-01-05T17:47:42;14.00;;;2.80;;
33840;SDS011;20142;28.494;-16.312;2023-01-05T17:52:44;9.23;;;2.70;;
33840;SDS011;20142;28.494;-16.312;2023-01-05T17:57:46;12.23;;;2.47;;
33840;SDS011;20142;28.494;-16.312;2023-01-05T18:02:48;13.85;;;2.85;;
33840;SDS011;20142;28.494;-16.312;2023-01-05T18:07:51;21.50;;;4.18;;
33840;SDS011;20142;28.494;-16.312;2023-01-05T18:12:53;20.55;;;3.45;;
33840;SDS011;20142;28.494;-16.312;2023-01-05T18:17:55;15.65;;;3.20;;
33840;SDS011;20142;28.494;-16.312;2023-01-05T18:22:59;17.58;;;3.58;;
33840;SDS011;20142;28.494;-16.312;2023-01-05T18:28:00;14.90;;;3.17;;
33840;SDS011;20142;28.494;-16.312;2023-01-05T18:33:02;13.82;;;3.35;;
33840;SDS011;20142;28.494;-16.312;2023-01-05T18:38:04;21.05;;;3.60;;
33840;SDS011;20142;28.494;-16.312;2023-01-05T18:43:05;14.00;;;3.13;;
33840;SDS011;20142;28.494;-16.312;2023-01-05T18:48:07;14.02;;;3.60;;
33840;SDS011;20142;28.494;-16.312;2023-01-05T18:53:09;18.38;;;3.90;;
33840;SDS011;20142;28.494;-16.312;2023-01-05T18:58:12;23.73;;;3.92;;
33840;SDS011;20142;28.494;-16.312;2023-01-05T19:03:14;14.40;;;3.42;;
33840;SDS011;20142;28.494;-16.312;2023-01-05T19:08:16;15.93;;;3.67;;
33840;SDS011;20142;28.494;-16.312;2023-01-05T19:13:18;12.68;;;3.25;;
33840;SDS011;20142;28.494;-16.312;2023-01-05T19:18:19;19.23;;;3.35;;
33840;SDS011;20142;28.494;-16.312;2023-01-05T19:23:21;19.65;;;3.83;;
33840;SDS011;20142;28.494;-16.312;2023-01-05T19:28:23;17.95;;;3.22;;
33840;SDS011;20142;28.494;-16.312;2023-01-05T19:33:24;14.02;;;3.83;;
33840;SDS011;20142;28.494;-16.312;2023-01-05T19:38:29;21.88;;;6.78;;
33840;SDS011;20142;28.494;-16.312;2023-01-05T19:43:31;38.30;;;13.68;;
33840;SDS011;20142;28.494;-16.312;2023-01-05T19:48:34;19.75;;;6.53;;
33840;SDS011;20142;28.494;-16.312;2023-01-05T19:53:38;18.98;;;4.40;;
